sensor_id;sensor_type;location;lat;lon;timestamp;temperature;humidity
49224;DHT22;35050;51.316;5.994;2022-11-04T00:01:49;11.30;99.90
49224;DHT22;35050;51.316;5.994;2022-11-04T00:04:17;11.20;99.90
49224;DHT22;35050;51.316;5.994;2022-11-04T00:06:43;11.30;99.90
49224;DHT22;35050;51.316;5.994;2022-11-04T00:09:11;11.20;99.90
49224;DHT22;35050;51.316;5.994;2022-11-04T00:11:37;11.20;99.90
49224;DHT22;35050;51.316;5.994;2022-11-04T00:14:21;11.20;99.90
49224;DHT22;35050;51.316;5.994;2022-11-04T00:16:47;11.30;99.90
49224;DHT22;35050;51.316;5.994;2022-11-04T00:19:31;11.30;99.90
49224;DHT22;35050;51.316;5.994;2022-11-04T00:22:17;11.20;99.90
49224;DHT22;35050;51.316;5.994;2022-11-04T00:25:01;11.20;99.90
49224;DHT22;35050;51.316;5.994;2022-11-04T00:27:46;11.20;99.90
49224;DHT22;35050;51.316;5.994;2022-11-04T00:30:30;11.20;99.90
49224;DHT22;35050;51.316;5.994;2022-11-04T00:32:56;11.10;99.90
49224;DHT22;35050;51.316;5.994;2022-11-04T00:35:40;11.10;99.90
49224;DHT22;35050;51.316;5.994;2022-11-04T00:38:05;11.00;99.90
49224;DHT22;35050;51.316;5.994;2022-11-04T00:40:31;11.00;99.90
49224;DHT22;35050;51.316;5.994;2022-11-04T00:42:56;11.00;99.90
49224;DHT22;35050;51.316;5.994;2022-11-04T00:45:22;11.00;99.90
49224;DHT22;35050;51.316;5.994;2022-11-04T00:47:48;10.90;99.90
49224;DHT22;35050;51.316;5.994;2022-11-04T00:50:13;10.90;99.90
49224;DHT22;35050;51.316;5.994;2022-11-04T00:52:39;10.80;99.90
49224;DHT22;35050;51.316;5.994;2022-11-04T00:55:05;10.80;99.90
49224;DHT22;35050;51.316;5.994;2022-11-04T00:57:31;10.80;99.90
49224;DHT22;35050;51.316;5.994;2022-11-04T00:59:56;10.80;99.90
49224;DHT22;35050;51.316;5.994;2022-11-04T01:02:22;10.80;99.90
49224;DHT22;35050;51.316;5.994;2022-11-04T01:04:48;10.90;99.90
49224;DHT22;35050;51.316;5.994;2022-11-04T01:07:13;10.80;99.90
49224;DHT22;35050;51.316;5.994;2022-11-04T01:09:39;10.90;99.90
49224;DHT22;35050;51.316;5.994;2022-11-04T01:12:05;10.80;99.90
49224;DHT22;35050;51.316;5.994;2022-11-04T01:14:30;10.80;99.90
49224;DHT22;35050;51.316;5.994;2022-11-04T01:16:56;10.80;99.90
49224;DHT22;35050;51.316;5.994;2022-11-04T01:19:22;10.80;99.90
49224;DHT22;35050;51.316;5.994;2022-11-04T01:21:51;10.90;99.90
49224;DHT22;35050;51.316;5.994;2022-11-04T01:24:18;10.80;99.90
49224;DHT22;35050;51.316;5.994;2022-11-04T01:26:43;10.80;99.90
49224;DHT22;35050;51.316;5.994;2022-11-04T01:29:09;10.80;99.90
49224;DHT22;35050;51.316;5.994;2022-11-04T01:31:35;10.80;99.90
49224;DHT22;35050;51.316;5.994;2022-11-04T01:34:01;10.80;99.90
49224;DHT22;35050;51.316;5.994;2022-11-04T01:36:27;10.70;99.90
49224;DHT22;35050;51.316;5.994;2022-11-04T01:38:56;10.70;99.90
49224;DHT22;35050;51.316;5.994;2022-11-04T01:41:27;10.70;99.90
49224;DHT22;35050;51.316;5.994;2022-11-04T01:43:58;10.70;99.90
49224;DHT22;35050;51.316;5.994;2022-11-04T01:46:44;10.70;99.90
49224;DHT22;35050;51.316;5.994;2022-11-04T01:52:00;10.60;99.90
49224;DHT22;35050;51.316;5.994;2022-11-04T01:54:27;10.60;99.90
49224;DHT22;35050;51.316;5.994;2022-11-04T01:56:54;10.70;99.90
49224;DHT22;35050;51.316;5.994;2022-11-04T01:59:24;10.70;99.90
49224;DHT22;35050;51.316;5.994;2022-11-04T02:01:51;10.70;99.90
49224;DHT22;35050;51.316;5.994;2022-11-04T02:04:17;10.70;99.90
49224;DHT22;35050;51.316;5.994;2022-11-04T02:06:57;10.60;99.90
49224;DHT22;35050;51.316;5.994;2022-11-04T02:09:26;10.70;99.90
49224;DHT22;35050;51.316;5.994;2022-11-04T02:11:53;10.70;99.90
49224;DHT22;35050;51.316;5.994;2022-11-04T02:14:38;10.60;99.90
49224;DHT22;35050;51.316;5.994;2022-11-04T02:31:13;10.60;99.90
49224;DHT22;35050;51.316;5.994;2022-11-04T02:33:52;10.70;99.90
49224;DHT22;35050;51.316;5.994;2022-11-04T02:36:34;10.50;99.90
49224;DHT22;35050;51.316;5.994;2022-11-04T02:39:34;10.60;99.90
49224;DHT22;35050;51.316;5.994;2022-11-04T02:42:21;10.50;99.90
49224;DHT22;35050;51.316;5.994;2022-11-04T02:44:54;10.50;99.90
49224;DHT22;35050;51.316;5.994;2022-11-04T02:47:25;10.50;99.90
49224;DHT22;35050;51.316;5.994;2022-11-04T02:50:14;10.50;99.90
49224;DHT22;35050;51.316;5.994;2022-11-04T02:55:24;10.50;99.90
49224;DHT22;35050;51.316;5.994;2022-11-04T02:57:52;10.50;99.90
49224;DHT22;35050;51.316;5.994;2022-11-04T03:00:20;10.50;99.90
49224;DHT22;35050;51.316;5.994;2022-11-04T03:02:52;10.60;99.90
49224;DHT22;35050;51.316;5.994;2022-11-04T03:05:25;10.60;99.90
49224;DHT22;35050;51.316;5.994;2022-11-04T03:07:55;10.60;99.90
49224;DHT22;35050;51.316;5.994;2022-11-04T03:10:40;10.60;99.90
49224;DHT22;35050;51.316;5.994;2022-11-04T03:15:56;10.60;99.90
49224;DHT22;35050;51.316;5.994;2022-11-04T03:21:12;10.50;99.90
49224;DHT22;35050;51.316;5.994;2022-11-04T03:23:38;10.40;99.90
49224;DHT22;35050;51.316;5.994;2022-11-04T03:26:15;10.50;99.90
49224;DHT22;35050;51.316;5.994;2022-11-04T03:31:23;10.50;99.90
49224;DHT22;35050;51.316;5.994;2022-11-04T03:33:51;10.50;99.90
49224;DHT22;35050;51.316;5.994;2022-11-04T03:36:18;10.40;99.90
49224;DHT22;35050;51.316;5.994;2022-11-04T03:38:46;10.50;99.90
49224;DHT22;35050;51.316;5.994;2022-11-04T03:41:19;10.50;99.90
49224;DHT22;35050;51.316;5.994;2022-11-04T03:43:47;10.50;99.90
49224;DHT22;35050;51.316;5.994;2022-11-04T03:46:13;10.40;99.90
49224;DHT22;35050;51.316;5.994;2022-11-04T03:48:39;10.40;99.90
49224;DHT22;35050;51.316;5.994;2022-11-04T03:51:08;10.50;99.90
49224;DHT22;35050;51.316;5.994;2022-11-04T03:53:33;10.50;99.90
49224;DHT22;35050;51.316;5.994;2022-11-04T03:56:19;10.60;99.90
49224;DHT22;35050;51.316;5.994;2022-11-04T04:01:53;10.60;99.90
49224;DHT22;35050;51.316;5.994;2022-11-04T04:04:50;10.60;99.90
49224;DHT22;35050;51.316;5.994;2022-11-04T04:07:26;10.60;99.90
49224;DHT22;35050;51.316;5.994;2022-11-04T04:13:01;10.50;99.90
49224;DHT22;35050;51.316;5.994;2022-11-04T04:15:39;10.50;99.90
49224;DHT22;35050;51.316;5.994;2022-11-04T04:18:09;10.60;99.90
49224;DHT22;35050;51.316;5.994;2022-11-04T04:20:37;10.50;99.90
49224;DHT22;35050;51.316;5.994;2022-11-04T04:23:14;10.50;99.90
49224;DHT22;35050;51.316;5.994;2022-11-04T04:26:01;10.40;99.90
49224;DHT22;35050;51.316;5.994;2022-11-04T04:28:47;10.30;99.90
49224;DHT22;35050;51.316;5.994;2022-11-04T04:31:15;10.40;99.90
49224;DHT22;35050;51.316;5.994;2022-11-04T04:34:04;10.30;99.90
49224;DHT22;35050;51.316;5.994;2022-11-04T04:36:32;10.30;99.90
49224;DHT22;35050;51.316;5.994;2022-11-04T04:39:05;10.20;99.90
49224;DHT22;35050;51.316;5.994;2022-11-04T04:41:52;10.20;99.90
49224;DHT22;35050;51.316;5.994;2022-11-04T04:44:40;10.20;99.90
49224;DHT22;35050;51.316;5.994;2022-11-04T04:47:26;10.10;99.90
49224;DHT22;35050;51.316;5.994;2022-11-04T04:49:58;10.10;99.90
49224;DHT22;35050;51.316;5.994;2022-11-04T04:52:26;10.00;99.90
49224;DHT22;35050;51.316;5.994;2022-11-04T04:54:53;10.10;99.90
49224;DHT22;35050;51.316;5.994;2022-11-04T04:57:18;10.00;99.90
49224;DHT22;35050;51.316;5.994;2022-11-04T04:59:44;9.90;99.90
49224;DHT22;35050;51.316;5.994;2022-11-04T05:02:09;9.90;99.90
49224;DHT22;35050;51.316;5.994;2022-11-04T05:04:35;9.90;99.90
49224;DHT22;35050;51.316;5.994;2022-11-04T05:07:01;9.90;99.90
49224;DHT22;35050;51.316;5.994;2022-11-04T05:09:26;9.80;99.90
49224;DHT22;35050;51.316;5.994;2022-11-04T05:11:52;9.80;99.90
49224;DHT22;35050;51.316;5.994;2022-11-04T05:14:18;9.70;99.90
49224;DHT22;35050;51.316;5.994;2022-11-04T05:16:43;9.80;99.90
49224;DHT22;35050;51.316;5.994;2022-11-04T05:19:09;9.70;99.90
49224;DHT22;35050;51.316;5.994;2022-11-04T05:21:34;9.70;99.90
49224;DHT22;35050;51.316;5.994;2022-11-04T05:24:00;9.70;99.90
49224;DHT22;35050;51.316;5.994;2022-11-04T05:26:26;9.60;99.90
49224;DHT22;35050;51.316;5.994;2022-11-04T05:28:51;9.60;99.90
49224;DHT22;35050;51.316;5.994;2022-11-04T05:31:17;9.60;99.90
49224;DHT22;35050;51.316;5.994;2022-11-04T05:33:43;9.70;99.90
49224;DHT22;35050;51.316;5.994;2022-11-04T05:36:13;9.70;99.90
49224;DHT22;35050;51.316;5.994;2022-11-04T05:38:40;9.70;99.90
49224;DHT22;35050;51.316;5.994;2022-11-04T05:41:08;9.70;99.90
49224;DHT22;35050;51.316;5.994;2022-11-04T05:43:35;9.80;99.90
49224;DHT22;35050;51.316;5.994;2022-11-04T05:46:01;9.80;99.90
49224;DHT22;35050;51.316;5.994;2022-11-04T05:48:27;9.80;99.90
49224;DHT22;35050;51.316;5.994;2022-11-04T05:50:53;9.80;99.90
49224;DHT22;35050;51.316;5.994;2022-11-04T05:53:19;9.80;99.90
49224;DHT22;35050;51.316;5.994;2022-11-04T05:55:44;9.90;99.90
49224;DHT22;35050;51.316;5.994;2022-11-04T05:58:10;9.90;99.90
49224;DHT22;35050;51.316;5.994;2022-11-04T06:00:36;9.90;99.90
49224;DHT22;35050;51.316;5.994;2022-11-04T06:03:01;10.00;99.90
49224;DHT22;35050;51.316;5.994;2022-11-04T06:05:27;9.90;99.90
49224;DHT22;35050;51.316;5.994;2022-11-04T06:07:54;10.00;99.90
49224;DHT22;35050;51.316;5.994;2022-11-04T06:10:20;10.00;99.90
49224;DHT22;35050;51.316;5.994;2022-11-04T06:12:46;10.10;99.90
49224;DHT22;35050;51.316;5.994;2022-11-04T06:15:12;10.10;99.90
49224;DHT22;35050;51.316;5.994;2022-11-04T06:17:37;10.10;99.90
49224;DHT22;35050;51.316;5.994;2022-11-04T06:20:04;10.00;99.90
49224;DHT22;35050;51.316;5.994;2022-11-04T06:22:31;10.10;99.90
49224;DHT22;35050;51.316;5.994;2022-11-04T06:24:56;10.10;99.90
49224;DHT22;35050;51.316;5.994;2022-11-04T06:27:22;10.20;99.90
49224;DHT22;35050;51.316;5.994;2022-11-04T06:29:48;10.20;99.90
49224;DHT22;35050;51.316;5.994;2022-11-04T06:32:16;10.20;99.90
49224;DHT22;35050;51.316;5.994;2022-11-04T06:34:42;10.30;99.90
49224;DHT22;35050;51.316;5.994;2022-11-04T06:37:08;10.30;99.90
49224;DHT22;35050;51.316;5.994;2022-11-04T06:39:34;10.20;99.90
49224;DHT22;35050;51.316;5.994;2022-11-04T06:42:00;10.20;99.90
49224;DHT22;35050;51.316;5.994;2022-11-04T06:44:26;10.30;99.90
49224;DHT22;35050;51.316;5.994;2022-11-04T06:46:52;10.30;99.90
49224;DHT22;35050;51.316;5.994;2022-11-04T06:49:19;10.40;99.90
49224;DHT22;35050;51.316;5.994;2022-11-04T06:51:48;10.30;99.90
49224;DHT22;35050;51.316;5.994;2022-11-04T06:54:15;10.40;99.90
49224;DHT22;35050;51.316;5.994;2022-11-04T06:56:41;10.40;99.90
49224;DHT22;35050;51.316;5.994;2022-11-04T06:59:08;10.50;99.90
49224;DHT22;35050;51.316;5.994;2022-11-04T07:01:35;10.40;99.90
49224;DHT22;35050;51.316;5.994;2022-11-04T07:04:01;10.30;99.90
49224;DHT22;35050;51.316;5.994;2022-11-04T07:06:29;10.40;99.90
49224;DHT22;35050;51.316;5.994;2022-11-04T07:08:57;10.40;99.90
49224;DHT22;35050;51.316;5.994;2022-11-04T07:11:24;10.40;99.90
49224;DHT22;35050;51.316;5.994;2022-11-04T07:13:50;10.40;99.90
49224;DHT22;35050;51.316;5.994;2022-11-04T07:16:16;10.40;99.90
49224;DHT22;35050;51.316;5.994;2022-11-04T07:18:42;10.40;99.90
49224;DHT22;35050;51.316;5.994;2022-11-04T07:21:08;10.50;99.90
49224;DHT22;35050;51.316;5.994;2022-11-04T07:23:34;10.50;99.90
49224;DHT22;35050;51.316;5.994;2022-11-04T07:26:02;10.40;99.90
49224;DHT22;35050;51.316;5.994;2022-11-04T07:28:28;10.50;99.90
49224;DHT22;35050;51.316;5.994;2022-11-04T07:30:55;10.50;99.90
49224;DHT22;35050;51.316;5.994;2022-11-04T07:33:22;10.50;99.90
49224;DHT22;35050;51.316;5.994;2022-11-04T07:35:47;10.60;99.90
49224;DHT22;35050;51.316;5.994;2022-11-04T07:38:13;10.70;99.90
49224;DHT22;35050;51.316;5.994;2022-11-04T07:40:39;10.70;99.90
49224;DHT22;35050;51.316;5.994;2022-11-04T07:43:04;10.70;99.90
49224;DHT22;35050;51.316;5.994;2022-11-04T07:45:31;10.80;99.90
49224;DHT22;35050;51.316;5.994;2022-11-04T07:47:57;10.80;99.90
49224;DHT22;35050;51.316;5.994;2022-11-04T07:50:22;10.90;99.90
49224;DHT22;35050;51.316;5.994;2022-11-04T07:52:48;10.90;99.90
49224;DHT22;35050;51.316;5.994;2022-11-04T07:55:16;10.90;99.90
49224;DHT22;35050;51.316;5.994;2022-11-04T07:57:46;11.30;99.90
49224;DHT22;35050;51.316;5.994;2022-11-04T08:00:13;11.10;99.90
49224;DHT22;35050;51.316;5.994;2022-11-04T08:02:41;11.10;99.90
49224;DHT22;35050;51.316;5.994;2022-11-04T08:05:09;11.20;99.90
49224;DHT22;35050;51.316;5.994;2022-11-04T08:07:34;11.20;99.90
49224;DHT22;35050;51.316;5.994;2022-11-04T08:10:00;11.20;99.90
49224;DHT22;35050;51.316;5.994;2022-11-04T08:12:26;11.20;99.90
49224;DHT22;35050;51.316;5.994;2022-11-04T08:14:52;11.20;99.90
49224;DHT22;35050;51.316;5.994;2022-11-04T08:17:18;11.30;99.90
49224;DHT22;35050;51.316;5.994;2022-11-04T08:19:43;11.40;99.90
49224;DHT22;35050;51.316;5.994;2022-11-04T08:22:09;11.40;99.90
49224;DHT22;35050;51.316;5.994;2022-11-04T08:24:35;11.50;99.90
49224;DHT22;35050;51.316;5.994;2022-11-04T08:27:01;11.50;99.90
49224;DHT22;35050;51.316;5.994;2022-11-04T08:29:29;11.50;99.90
49224;DHT22;35050;51.316;5.994;2022-11-04T08:31:54;11.50;99.90
49224;DHT22;35050;51.316;5.994;2022-11-04T08:34:20;11.60;99.90
49224;DHT22;35050;51.316;5.994;2022-11-04T08:36:45;11.60;99.90
49224;DHT22;35050;51.316;5.994;2022-11-04T08:39:12;11.80;99.90
49224;DHT22;35050;51.316;5.994;2022-11-04T08:41:40;12.00;99.90
49224;DHT22;35050;51.316;5.994;2022-11-04T08:44:06;12.00;99.90
49224;DHT22;35050;51.316;5.994;2022-11-04T08:46:35;12.10;99.90
49224;DHT22;35050;51.316;5.994;2022-11-04T08:49:03;12.00;99.90
49224;DHT22;35050;51.316;5.994;2022-11-04T08:51:30;12.20;99.90
49224;DHT22;35050;51.316;5.994;2022-11-04T08:53:56;12.20;99.90
49224;DHT22;35050;51.316;5.994;2022-11-04T08:56:25;12.30;99.90
49224;DHT22;35050;51.316;5.994;2022-11-04T08:58:52;12.20;99.90
49224;DHT22;35050;51.316;5.994;2022-11-04T09:01:18;12.20;99.90
49224;DHT22;35050;51.316;5.994;2022-11-04T09:03:45;12.00;99.90
49224;DHT22;35050;51.316;5.994;2022-11-04T09:06:15;12.10;99.90
49224;DHT22;35050;51.316;5.994;2022-11-04T09:08:42;11.90;99.90
49224;DHT22;35050;51.316;5.994;2022-11-04T09:11:11;11.90;99.90
49224;DHT22;35050;51.316;5.994;2022-11-04T09:13:37;12.00;99.90
49224;DHT22;35050;51.316;5.994;2022-11-04T09:16:04;12.00;99.90
49224;DHT22;35050;51.316;5.994;2022-11-04T09:18:30;12.00;99.90
49224;DHT22;35050;51.316;5.994;2022-11-04T09:21:00;12.10;99.90
49224;DHT22;35050;51.316;5.994;2022-11-04T09:23:27;12.10;99.90
49224;DHT22;35050;51.316;5.994;2022-11-04T09:25:52;12.10;99.90
49224;DHT22;35050;51.316;5.994;2022-11-04T09:28:20;12.20;99.90
49224;DHT22;35050;51.316;5.994;2022-11-04T09:30:45;12.20;99.90
49224;DHT22;35050;51.316;5.994;2022-11-04T09:33:11;13.20;99.90
49224;DHT22;35050;51.316;5.994;2022-11-04T09:35:36;13.20;99.90
49224;DHT22;35050;51.316;5.994;2022-11-04T09:38:02;12.80;99.90
49224;DHT22;35050;51.316;5.994;2022-11-04T09:40:28;12.70;99.90
49224;DHT22;35050;51.316;5.994;2022-11-04T09:45:40;12.50;99.90
49224;DHT22;35050;51.316;5.994;2022-11-04T09:48:11;12.40;99.90
49224;DHT22;35050;51.316;5.994;2022-11-04T09:50:48;12.50;99.90
49224;DHT22;35050;51.316;5.994;2022-11-04T09:53:37;12.60;99.90
49224;DHT22;35050;51.316;5.994;2022-11-04T09:58:39;12.60;99.90
49224;DHT22;35050;51.316;5.994;2022-11-04T10:17:33;12.70;99.90
49224;DHT22;35050;51.316;5.994;2022-11-04T10:20:09;12.50;99.90
49224;DHT22;35050;51.316;5.994;2022-11-04T10:25:48;12.60;99.90
49224;DHT22;35050;51.316;5.994;2022-11-04T10:28:17;12.70;99.90
49224;DHT22;35050;51.316;5.994;2022-11-04T10:30:46;12.70;99.90
49224;DHT22;35050;51.316;5.994;2022-11-04T10:33:20;12.60;99.90
49224;DHT22;35050;51.316;5.994;2022-11-04T10:36:08;12.60;99.90
49224;DHT22;35050;51.316;5.994;2022-11-04T10:43:50;12.70;99.90
49224;DHT22;35050;51.316;5.994;2022-11-04T10:52:01;12.80;99.90
49224;DHT22;35050;51.316;5.994;2022-11-04T10:54:27;12.90;99.90
49224;DHT22;35050;51.316;5.994;2022-11-04T10:56:55;13.10;99.90
49224;DHT22;35050;51.316;5.994;2022-11-04T11:01:59;13.10;99.90
49224;DHT22;35050;51.316;5.994;2022-11-04T11:04:36;13.20;99.90
49224;DHT22;35050;51.316;5.994;2022-11-04T11:07:05;13.30;99.90
49224;DHT22;35050;51.316;5.994;2022-11-04T11:12:18;13.30;99.90
49224;DHT22;35050;51.316;5.994;2022-11-04T11:14:48;13.40;99.90
49224;DHT22;35050;51.316;5.994;2022-11-04T11:19:57;13.20;99.90
49224;DHT22;35050;51.316;5.994;2022-11-04T11:22:34;13.10;99.90
49224;DHT22;35050;51.316;5.994;2022-11-04T11:27:57;13.10;99.90
49224;DHT22;35050;51.316;5.994;2022-11-04T11:30:24;13.10;99.90
49224;DHT22;35050;51.316;5.994;2022-11-04T11:32:57;13.10;99.90
49224;DHT22;35050;51.316;5.994;2022-11-04T11:35:28;13.10;99.90
49224;DHT22;35050;51.316;5.994;2022-11-04T11:37:56;13.20;99.90
49224;DHT22;35050;51.316;5.994;2022-11-04T11:40:27;13.40;99.90
49224;DHT22;35050;51.316;5.994;2022-11-04T11:42:54;13.40;99.90
49224;DHT22;35050;51.316;5.994;2022-11-04T11:45:22;13.40;99.90
49224;DHT22;35050;51.316;5.994;2022-11-04T11:47:48;13.40;99.90
49224;DHT22;35050;51.316;5.994;2022-11-04T11:50:29;13.40;99.90
49224;DHT22;35050;51.316;5.994;2022-11-04T11:53:16;13.60;99.90
49224;DHT22;35050;51.316;5.994;2022-11-04T11:58:45;13.50;99.90
49224;DHT22;35050;51.316;5.994;2022-11-04T12:01:22;13.60;99.90
49224;DHT22;35050;51.316;5.994;2022-11-04T12:03:50;13.60;99.90
49224;DHT22;35050;51.316;5.994;2022-11-04T12:14:37;14.00;99.90
49224;DHT22;35050;51.316;5.994;2022-11-04T12:33:34;17.90;99.90
49224;DHT22;35050;51.316;5.994;2022-11-04T12:39:14;18.90;99.90
49224;DHT22;35050;51.316;5.994;2022-11-04T12:44:26;19.50;99.90
49224;DHT22;35050;51.316;5.994;2022-11-04T12:47:18;19.60;99.90
49224;DHT22;35050;51.316;5.994;2022-11-04T12:56:10;20.80;99.90
49224;DHT22;35050;51.316;5.994;2022-11-04T13:01:45;18.00;99.90
49224;DHT22;35050;51.316;5.994;2022-11-04T13:04:13;17.50;99.90
49224;DHT22;35050;51.316;5.994;2022-11-04T13:06:40;17.20;99.90
49224;DHT22;35050;51.316;5.994;2022-11-04T13:09:31;17.00;99.90
49224;DHT22;35050;51.316;5.994;2022-11-04T13:12:16;16.70;99.90
49224;DHT22;35050;51.316;5.994;2022-11-04T13:17:36;16.50;99.90
49224;DHT22;35050;51.316;5.994;2022-11-04T13:20:16;16.40;99.90
49224;DHT22;35050;51.316;5.994;2022-11-04T13:22:48;16.10;99.90
49224;DHT22;35050;51.316;5.994;2022-11-04T13:25:26;16.00;99.90
49224;DHT22;35050;51.316;5.994;2022-11-04T13:27:53;15.90;99.90
49224;DHT22;35050;51.316;5.994;2022-11-04T13:35:52;15.50;99.90
49224;DHT22;35050;51.316;5.994;2022-11-04T13:38:29;15.20;99.90
49224;DHT22;35050;51.316;5.994;2022-11-04T13:43:37;14.90;99.90
49224;DHT22;35050;51.316;5.994;2022-11-04T13:46:15;14.90;99.90
49224;DHT22;35050;51.316;5.994;2022-11-04T13:48:53;14.80;99.90
49224;DHT22;35050;51.316;5.994;2022-11-04T13:51:21;14.80;99.90
49224;DHT22;35050;51.316;5.994;2022-11-04T13:53:50;14.70;99.90
49224;DHT22;35050;51.316;5.994;2022-11-04T13:59:25;14.50;99.90
49224;DHT22;35050;51.316;5.994;2022-11-04T14:04:39;14.50;99.90
49224;DHT22;35050;51.316;5.994;2022-11-04T14:07:15;14.60;99.90
49224;DHT22;35050;51.316;5.994;2022-11-04T14:14:43;14.50;99.90
49224;DHT22;35050;51.316;5.994;2022-11-04T14:22:31;14.20;99.90
49224;DHT22;35050;51.316;5.994;2022-11-04T14:25:03;14.30;99.90
49224;DHT22;35050;51.316;5.994;2022-11-04T14:27:43;14.40;99.90
49224;DHT22;35050;51.316;5.994;2022-11-04T14:33:07;14.30;99.90
49224;DHT22;35050;51.316;5.994;2022-11-04T14:35:41;14.10;99.90
49224;DHT22;35050;51.316;5.994;2022-11-04T14:38:21;14.00;99.90
49224;DHT22;35050;51.316;5.994;2022-11-04T14:43:41;14.10;99.90
49224;DHT22;35050;51.316;5.994;2022-11-04T14:46:07;14.00;99.90
49224;DHT22;35050;51.316;5.994;2022-11-04T14:48:33;14.00;99.90
49224;DHT22;35050;51.316;5.994;2022-11-04T14:50:59;13.90;99.90
49224;DHT22;35050;51.316;5.994;2022-11-04T14:53:32;14.00;99.90
49224;DHT22;35050;51.316;5.994;2022-11-04T14:58:37;14.00;99.90
49224;DHT22;35050;51.316;5.994;2022-11-04T15:01:03;13.90;99.90
49224;DHT22;35050;51.316;5.994;2022-11-04T15:03:36;13.80;99.90
49224;DHT22;35050;51.316;5.994;2022-11-04T15:06:05;13.80;99.90
49224;DHT22;35050;51.316;5.994;2022-11-04T15:08:35;13.70;99.90
49224;DHT22;35050;51.316;5.994;2022-11-04T15:11:14;13.80;99.90
49224;DHT22;35050;51.316;5.994;2022-11-04T15:13:49;13.70;99.90
49224;DHT22;35050;51.316;5.994;2022-11-04T15:16:27;13.90;99.90
49224;DHT22;35050;51.316;5.994;2022-11-04T15:18:56;13.80;99.90
49224;DHT22;35050;51.316;5.994;2022-11-04T15:21:23;13.80;99.90
49224;DHT22;35050;51.316;5.994;2022-11-04T15:23:51;13.70;99.90
49224;DHT22;35050;51.316;5.994;2022-11-04T15:26:29;13.70;99.90
49224;DHT22;35050;51.316;5.994;2022-11-04T15:28:58;13.90;99.90
49224;DHT22;35050;51.316;5.994;2022-11-04T15:31:26;13.80;99.90
49224;DHT22;35050;51.316;5.994;2022-11-04T15:33:54;13.70;99.90
49224;DHT22;35050;51.316;5.994;2022-11-04T15:36:23;13.50;99.90
49224;DHT22;35050;51.316;5.994;2022-11-04T15:38:59;13.60;99.90
49224;DHT22;35050;51.316;5.994;2022-11-04T15:41:29;13.50;99.90
49224;DHT22;35050;51.316;5.994;2022-11-04T15:44:22;13.40;99.90
49224;DHT22;35050;51.316;5.994;2022-11-04T15:46:54;13.50;99.90
49224;DHT22;35050;51.316;5.994;2022-11-04T15:49:22;13.50;99.90
49224;DHT22;35050;51.316;5.994;2022-11-04T15:51:49;13.50;99.90
49224;DHT22;35050;51.316;5.994;2022-11-04T15:56:46;13.50;99.90
49224;DHT22;35050;51.316;5.994;2022-11-04T15:59:30;13.40;99.90
49224;DHT22;35050;51.316;5.994;2022-11-04T16:01:57;13.50;99.90
49224;DHT22;35050;51.316;5.994;2022-11-04T16:04:24;13.20;99.90
49224;DHT22;35050;51.316;5.994;2022-11-04T16:09:53;13.10;99.90
49224;DHT22;35050;51.316;5.994;2022-11-04T16:12:36;13.10;99.90
49224;DHT22;35050;51.316;5.994;2022-11-04T16:15:02;13.10;99.90
49224;DHT22;35050;51.316;5.994;2022-11-04T16:17:28;13.10;99.90
49224;DHT22;35050;51.316;5.994;2022-11-04T16:20:03;13.00;99.90
49224;DHT22;35050;51.316;5.994;2022-11-04T16:22:33;13.00;99.90
49224;DHT22;35050;51.316;5.994;2022-11-04T16:25:03;13.00;99.90
49224;DHT22;35050;51.316;5.994;2022-11-04T16:27:32;13.00;99.90
49224;DHT22;35050;51.316;5.994;2022-11-04T16:30:11;13.00;99.90
49224;DHT22;35050;51.316;5.994;2022-11-04T16:32:43;13.10;99.90
49224;DHT22;35050;51.316;5.994;2022-11-04T16:37:44;12.90;99.90
49224;DHT22;35050;51.316;5.994;2022-11-04T16:40:11;12.90;99.90
49224;DHT22;35050;51.316;5.994;2022-11-04T16:42:36;12.80;99.90
49224;DHT22;35050;51.316;5.994;2022-11-04T16:45:03;12.80;99.90
49224;DHT22;35050;51.316;5.994;2022-11-04T16:47:38;12.70;99.90
49224;DHT22;35050;51.316;5.994;2022-11-04T16:50:13;12.70;99.90
49224;DHT22;35050;51.316;5.994;2022-11-04T16:52:42;12.60;99.90
49224;DHT22;35050;51.316;5.994;2022-11-04T16:55:08;12.60;99.90
49224;DHT22;35050;51.316;5.994;2022-11-04T16:57:34;12.60;99.90
49224;DHT22;35050;51.316;5.994;2022-11-04T17:00:00;12.50;99.90
49224;DHT22;35050;51.316;5.994;2022-11-04T17:02:28;12.50;99.90
49224;DHT22;35050;51.316;5.994;2022-11-04T17:04:56;12.50;99.90
49224;DHT22;35050;51.316;5.994;2022-11-04T17:07:21;12.50;99.90
49224;DHT22;35050;51.316;5.994;2022-11-04T17:09:47;12.50;99.90
49224;DHT22;35050;51.316;5.994;2022-11-04T17:12:13;12.40;99.90
49224;DHT22;35050;51.316;5.994;2022-11-04T17:14:38;12.50;99.90
49224;DHT22;35050;51.316;5.994;2022-11-04T17:17:05;12.50;99.90
49224;DHT22;35050;51.316;5.994;2022-11-04T17:19:31;12.50;99.90
49224;DHT22;35050;51.316;5.994;2022-11-04T17:21:58;12.50;99.90
49224;DHT22;35050;51.316;5.994;2022-11-04T17:24:25;12.50;99.90
49224;DHT22;35050;51.316;5.994;2022-11-04T17:26:50;12.50;99.90
49224;DHT22;35050;51.316;5.994;2022-11-04T17:29:16;12.50;99.90
49224;DHT22;35050;51.316;5.994;2022-11-04T17:31:41;12.40;99.90
49224;DHT22;35050;51.316;5.994;2022-11-04T17:34:08;12.40;99.90
49224;DHT22;35050;51.316;5.994;2022-11-04T17:36:34;12.50;99.90
49224;DHT22;35050;51.316;5.994;2022-11-04T17:39:00;12.40;99.90
49224;DHT22;35050;51.316;5.994;2022-11-04T17:41:26;12.50;99.90
49224;DHT22;35050;51.316;5.994;2022-11-04T17:44:10;12.40;99.90
49224;DHT22;35050;51.316;5.994;2022-11-04T17:46:36;12.30;99.90
49224;DHT22;35050;51.316;5.994;2022-11-04T17:49:20;12.40;99.90
49224;DHT22;35050;51.316;5.994;2022-11-04T17:51:48;12.30;99.90
49224;DHT22;35050;51.316;5.994;2022-11-04T17:54:14;12.30;99.90
49224;DHT22;35050;51.316;5.994;2022-11-04T17:56:41;12.30;99.90
49224;DHT22;35050;51.316;5.994;2022-11-04T17:59:09;12.30;99.90
49224;DHT22;35050;51.316;5.994;2022-11-04T18:01:35;12.30;99.90
49224;DHT22;35050;51.316;5.994;2022-11-04T18:04:02;12.30;99.90
49224;DHT22;35050;51.316;5.994;2022-11-04T18:06:32;12.20;99.90
49224;DHT22;35050;51.316;5.994;2022-11-04T18:08:58;12.20;99.90
49224;DHT22;35050;51.316;5.994;2022-11-04T18:11:25;12.20;99.90
49224;DHT22;35050;51.316;5.994;2022-11-04T18:14:10;12.20;99.90
49224;DHT22;35050;51.316;5.994;2022-11-04T18:16:39;12.30;99.90
49224;DHT22;35050;51.316;5.994;2022-11-04T18:19:04;12.30;99.90
49224;DHT22;35050;51.316;5.994;2022-11-04T18:21:30;12.30;99.90
49224;DHT22;35050;51.316;5.994;2022-11-04T18:23:57;12.40;99.90
49224;DHT22;35050;51.316;5.994;2022-11-04T18:26:24;12.40;99.90
49224;DHT22;35050;51.316;5.994;2022-11-04T18:28:50;12.40;99.90
49224;DHT22;35050;51.316;5.994;2022-11-04T18:31:25;12.40;99.90
49224;DHT22;35050;51.316;5.994;2022-11-04T18:33:52;12.30;99.90
49224;DHT22;35050;51.316;5.994;2022-11-04T18:36:18;12.30;99.90